Terminal Aerodrome Forecast
Issued by NWS

Home | Current Version | Previous Version | Text Only | Print | Product List | Glossary On
Versions: 1 2 3 4 5 6 7 8 9 10 11 12 13 14
000
FTUS42 KTBW 042337
TAFRSW
TAF
KRSW 042337Z 0500/0524 09011G20KT P6SM SCT050 BKN250
     FM050300 07007KT P6SM BKN250
     FM051400 08013KT P6SM VCSH SCT050 BKN250
     FM051800 10013G19KT P6SM VCSH SCT030 OVC050=

USA.gov is the U.S. government's official web portal to all federal, state and local government web resources and services.